createdAt,value
2022-09-09T00:02:22.978Z,1.20
2022-09-09T00:05:05.592Z,1.40
2022-09-09T00:07:45.916Z,1.30
2022-09-09T00:10:12.372Z,1.50
2022-09-09T00:12:58.709Z,1.20
2022-09-09T00:16:01.169Z,1.20
2022-09-09T00:18:34.866Z,1.20
2022-09-09T00:21:09.993Z,1.10
2022-09-09T00:23:40.542Z,1.30
2022-09-09T00:26:31.259Z,1.40
2022-09-09T00:29:23.297Z,1.20
2022-09-09T00:31:50.208Z,1.33
2022-09-09T00:34:20.292Z,1.27
2022-09-09T00:36:46.799Z,1.40
2022-09-09T00:39:20.487Z,1.40
2022-09-09T00:42:09.559Z,1.30
2022-09-09T00:44:40.585Z,1.37
2022-09-09T00:47:19.939Z,1.20
2022-09-09T00:50:04.682Z,1.30
2022-09-09T00:52:41.141Z,1.20
2022-09-09T00:55:29.296Z,1.40
2022-09-09T00:57:56.847Z,1.20
2022-09-09T01:00:27.952Z,1.40
2022-09-09T01:02:59.204Z,1.40
2022-09-09T01:05:34.403Z,1.20
2022-09-09T01:08:06.169Z,1.50
2022-09-09T01:10:50.610Z,1.30
2022-09-09T01:13:26.025Z,1.37
2022-09-09T01:15:56.320Z,1.30
2022-09-09T01:18:29.060Z,1.20
2022-09-09T01:20:56.472Z,1.50
2022-09-09T01:23:29.019Z,1.37
2022-09-09T01:26:19.342Z,1.30
2022-09-09T01:28:47.857Z,1.23
2022-09-09T01:31:20.379Z,1.30
2022-09-09T01:33:47.000Z,1.40
2022-09-09T01:36:34.779Z,1.20
2022-09-09T01:39:01.241Z,1.23
2022-09-09T01:41:27.759Z,1.43
2022-09-09T01:43:54.553Z,1.30
2022-09-09T01:46:22.289Z,1.27
2022-09-09T01:48:49.213Z,1.40
2022-09-09T01:51:15.696Z,1.20
2022-09-09T01:53:42.468Z,1.33
2022-09-09T01:56:17.723Z,1.10
2022-09-09T01:58:56.226Z,1.47
2022-09-09T02:01:29.663Z,1.40
2022-09-09T02:03:57.704Z,1.40
2022-09-09T02:06:32.037Z,1.50
2022-09-09T02:09:00.202Z,1.30
2022-09-09T02:11:27.665Z,1.20
2022-09-09T02:14:02.691Z,1.40
2022-09-09T02:16:35.255Z,1.33
2022-09-09T02:19:15.368Z,1.30
2022-09-09T02:21:43.121Z,1.30
2022-09-09T02:24:11.327Z,1.20
2022-09-09T02:26:41.309Z,1.40
2022-09-09T02:29:10.936Z,1.37
2022-09-09T02:31:37.493Z,1.50
2022-09-09T02:34:04.260Z,1.20
2022-09-09T02:36:34.381Z,1.10
2022-09-09T02:39:01.056Z,1.30
2022-09-09T02:41:35.790Z,1.30
2022-09-09T02:44:02.563Z,1.30
2022-09-09T02:46:29.951Z,1.17
2022-09-09T02:49:07.508Z,1.20
2022-09-09T02:51:49.228Z,1.23
2022-09-09T02:54:37.118Z,1.30
2022-09-09T02:57:11.403Z,1.43
2022-09-09T02:59:38.343Z,1.20
2022-09-09T03:02:05.069Z,1.20
2022-09-09T03:04:32.145Z,1.30
2022-09-09T03:06:59.480Z,1.40
2022-09-09T03:09:26.911Z,1.30
2022-09-09T03:11:53.523Z,1.20
2022-09-09T03:14:22.193Z,1.03
2022-09-09T03:16:49.476Z,1.23
2022-09-09T03:19:17.180Z,1.27
2022-09-09T03:21:43.718Z,1.17
2022-09-09T03:24:10.557Z,1.30
2022-09-09T03:26:38.480Z,1.30
2022-09-09T03:29:07.486Z,1.30
2022-09-09T03:31:35.008Z,1.33
2022-09-09T03:34:01.580Z,1.40
2022-09-09T03:36:28.072Z,1.30
2022-09-09T03:38:57.596Z,1.20
2022-09-09T03:41:24.899Z,1.27
2022-09-09T03:43:52.280Z,1.10
2022-09-09T03:46:19.788Z,1.50
2022-09-09T03:48:46.316Z,1.10
2022-09-09T03:51:12.933Z,1.37
2022-09-09T03:53:39.414Z,1.33
2022-09-09T03:56:07.681Z,1.27
2022-09-09T03:58:35.037Z,1.30
2022-09-09T04:01:14.460Z,1.30
2022-09-09T04:03:41.436Z,1.57
2022-09-09T04:06:10.303Z,1.50
2022-09-09T04:08:37.228Z,1.60
2022-09-09T04:11:05.976Z,1.37
2022-09-09T04:13:32.519Z,1.50
2022-09-09T04:15:59.853Z,1.30
2022-09-09T04:18:27.020Z,1.40
2022-09-09T04:20:53.841Z,1.47
2022-09-09T04:23:21.513Z,1.30
2022-09-09T04:25:52.384Z,1.93
2022-09-09T04:28:20.108Z,1.60
2022-09-09T04:30:46.615Z,1.57
2022-09-09T04:33:13.308Z,1.43
2022-09-09T04:35:39.824Z,1.70
2022-09-09T04:38:08.420Z,1.53
2022-09-09T04:40:34.921Z,2.00
2022-09-09T04:43:01.931Z,1.60
2022-09-09T04:45:28.507Z,1.70
2022-09-09T04:47:55.163Z,1.80
2022-09-09T04:50:21.739Z,1.63
2022-09-09T04:52:48.418Z,1.83
2022-09-09T04:55:14.963Z,2.10
2022-09-09T04:57:41.523Z,2.50
2022-09-09T05:00:08.754Z,3.37
2022-09-09T05:02:39.262Z,3.07
2022-09-09T05:05:06.938Z,2.90
2022-09-09T05:07:33.511Z,3.03
2022-09-09T05:09:59.978Z,2.97
2022-09-09T05:12:26.615Z,2.47
2022-09-09T05:14:53.631Z,3.03
2022-09-09T05:17:20.158Z,2.33
2022-09-09T05:19:46.673Z,2.40
2022-09-09T05:22:13.146Z,2.60
2022-09-09T05:24:39.681Z,2.40
2022-09-09T05:27:07.135Z,2.50
2022-09-09T05:29:36.828Z,2.20
2022-09-09T05:32:03.957Z,2.43
2022-09-09T05:34:30.462Z,2.47
2022-09-09T05:36:56.953Z,2.43
2022-09-09T05:39:23.439Z,2.47
2022-09-09T05:41:50.105Z,2.70
2022-09-09T05:44:16.695Z,2.67
2022-09-09T05:46:43.272Z,2.97
2022-09-09T05:49:09.877Z,3.83
2022-09-09T05:51:36.377Z,4.60
2022-09-09T05:54:02.860Z,4.50
2022-09-09T05:56:29.763Z,5.17
2022-09-09T05:58:56.449Z,5.23
2022-09-09T06:01:30.232Z,5.40
2022-09-09T06:03:56.732Z,5.03
2022-09-09T06:06:26.880Z,5.43
2022-09-09T06:08:54.562Z,6.07
2022-09-09T06:11:22.852Z,5.83
2022-09-09T06:13:52.292Z,6.27
2022-09-09T06:16:19.431Z,5.37
2022-09-09T06:18:46.193Z,5.27
2022-09-09T06:21:16.231Z,4.27
2022-09-09T06:23:42.969Z,4.30
2022-09-09T06:26:18.928Z,4.10
2022-09-09T06:28:50.264Z,4.23
2022-09-09T06:31:29.313Z,4.20
2022-09-09T06:33:56.522Z,4.30
2022-09-09T06:36:27.519Z,4.17
2022-09-09T06:38:54.267Z,4.20
2022-09-09T06:41:21.660Z,4.20
2022-09-09T06:43:48.203Z,4.00
2022-09-09T06:46:14.761Z,4.50
2022-09-09T06:48:45.476Z,4.40
2022-09-09T06:51:19.861Z,4.57
2022-09-09T06:53:46.916Z,5.27
2022-09-09T06:56:31.684Z,5.17
2022-09-09T06:58:59.636Z,5.53
2022-09-09T07:01:31.382Z,5.50
2022-09-09T07:03:59.837Z,5.27
2022-09-09T07:06:31.173Z,5.27
2022-09-09T07:09:07.535Z,5.73
2022-09-09T07:11:39.862Z,6.23
2022-09-09T07:14:06.363Z,6.17
2022-09-09T07:16:34.580Z,6.43
2022-09-09T07:19:01.568Z,6.50
2022-09-09T07:21:28.530Z,6.90
2022-09-09T07:23:55.474Z,7.00
2022-09-09T07:26:23.920Z,6.63
2022-09-09T07:28:50.634Z,6.87
2022-09-09T07:31:22.247Z,8.47
2022-09-09T07:33:49.290Z,7.83
2022-09-09T07:36:16.620Z,7.53
2022-09-09T07:38:47.361Z,7.53
2022-09-09T07:41:31.316Z,7.43
2022-09-09T07:43:57.844Z,7.33
2022-09-09T07:46:25.399Z,7.83
2022-09-09T07:48:53.795Z,8.90
2022-09-09T07:51:25.976Z,9.03
2022-09-09T07:53:58.488Z,9.63
2022-09-09T07:56:25.666Z,8.97
2022-09-09T07:58:53.403Z,8.80
2022-09-09T08:01:21.477Z,8.30
2022-09-09T08:03:49.108Z,8.30
2022-09-09T08:06:16.672Z,8.27
2022-09-09T08:08:44.170Z,7.93
2022-09-09T08:11:17.811Z,7.60
2022-09-09T08:13:44.515Z,8.23
2022-09-09T08:16:19.137Z,7.50
2022-09-09T08:18:45.896Z,7.43
2022-09-09T08:21:13.693Z,7.33
2022-09-09T08:23:43.262Z,7.60
2022-09-09T08:26:17.018Z,7.00
2022-09-09T08:28:43.854Z,6.87
2022-09-09T08:31:18.249Z,7.93
2022-09-09T08:33:46.879Z,6.33
2022-09-09T08:36:17.360Z,6.57
2022-09-09T08:38:44.081Z,6.20
2022-09-09T08:41:13.360Z,6.47
2022-09-09T08:43:39.857Z,6.70
2022-09-09T08:46:28.363Z,6.83
2022-09-09T08:49:02.900Z,6.13
2022-09-09T08:51:30.548Z,5.10
2022-09-09T08:53:59.782Z,5.77
2022-09-09T08:56:26.805Z,5.60
2022-09-09T08:58:54.341Z,5.57
2022-09-09T09:01:40.572Z,5.73
2022-09-09T09:04:16.051Z,6.20
2022-09-09T09:06:55.181Z,5.67
2022-09-09T09:10:18.912Z,5.57
2022-09-09T09:12:53.384Z,5.53
2022-09-09T09:15:29.430Z,4.70
2022-09-09T09:17:58.618Z,4.93
2022-09-09T09:20:44.030Z,5.07
2022-09-09T09:23:16.556Z,5.03
2022-09-09T09:25:43.712Z,4.90
2022-09-09T09:28:18.465Z,5.03
2022-09-09T09:30:58.730Z,5.13
2022-09-09T09:33:27.879Z,4.40
2022-09-09T09:35:54.657Z,4.93
2022-09-09T09:41:09.868Z,4.93
2022-09-09T09:43:37.935Z,4.40
2022-09-09T09:46:17.726Z,4.60
2022-09-09T09:48:46.581Z,4.63
2022-09-09T09:51:16.887Z,4.07
2022-09-09T09:53:43.443Z,4.43
2022-09-09T09:56:11.229Z,4.73
2022-09-09T09:58:57.981Z,4.47
2022-09-09T10:01:32.239Z,3.83
2022-09-09T10:04:03.224Z,4.77
2022-09-09T10:06:37.588Z,4.37
2022-09-09T10:09:05.321Z,4.13
2022-09-09T10:11:56.870Z,3.73
2022-09-09T10:14:30.300Z,4.07
2022-09-09T10:17:51.295Z,3.57
2022-09-09T10:20:35.681Z,3.40
2022-09-09T10:23:06.765Z,3.20
2022-09-09T10:25:57.473Z,3.20
2022-09-09T10:28:55.454Z,3.27
2022-09-09T10:31:30.910Z,3.13
2022-09-09T10:34:26.459Z,3.30
2022-09-09T10:36:54.871Z,3.40
2022-09-09T10:39:31.267Z,3.60
2022-09-09T10:42:04.642Z,3.70
2022-09-09T10:44:37.054Z,3.40
2022-09-09T10:47:14.618Z,3.27
2022-09-09T10:50:09.520Z,3.20
2022-09-09T10:52:36.231Z,2.83
2022-09-09T10:55:33.215Z,3.30
2022-09-09T10:57:59.868Z,3.23
2022-09-09T11:00:43.024Z,3.20
2022-09-09T11:03:30.396Z,2.87
2022-09-09T11:06:00.834Z,3.03
2022-09-09T11:08:28.781Z,3.93
2022-09-09T11:11:04.614Z,3.50
2022-09-09T11:13:40.755Z,3.00
2022-09-09T11:16:16.244Z,3.30
2022-09-09T11:18:42.772Z,3.60
2022-09-09T11:21:23.367Z,2.90
2022-09-09T11:23:53.898Z,3.30
2022-09-09T11:26:27.041Z,3.37
2022-09-09T11:28:53.501Z,2.80
2022-09-09T11:31:32.187Z,3.47
2022-09-09T11:34:28.881Z,3.30
2022-09-09T11:37:27.184Z,3.53
2022-09-09T11:40:02.754Z,3.83
2022-09-09T11:42:29.291Z,3.67
2022-09-09T11:44:56.058Z,3.83
2022-09-09T11:47:32.819Z,3.83
2022-09-09T11:50:24.332Z,4.00
2022-09-09T11:52:50.828Z,3.93
2022-09-09T11:55:27.544Z,4.27
2022-09-09T11:58:12.101Z,4.27
2022-09-09T12:00:39.617Z,3.73
2022-09-09T12:03:06.245Z,4.27
2022-09-09T12:05:43.640Z,4.13
2022-09-09T12:08:10.839Z,4.40
2022-09-09T12:10:41.778Z,4.33
2022-09-09T12:13:21.190Z,4.23
2022-09-09T12:15:49.222Z,4.10
2022-09-09T12:18:22.903Z,4.70
2022-09-09T12:21:16.629Z,4.67
2022-09-09T12:24:01.907Z,3.83
2022-09-09T12:26:34.244Z,4.30
2022-09-09T12:29:32.384Z,3.43
2022-09-09T12:32:12.702Z,3.87
2022-09-09T12:34:39.976Z,4.17
2022-09-09T12:37:25.457Z,4.47
2022-09-09T12:40:00.311Z,4.20
2022-09-09T12:42:27.599Z,3.80
2022-09-09T12:45:01.497Z,3.70
2022-09-09T12:47:36.697Z,4.63
2022-09-09T12:50:03.281Z,3.90
2022-09-09T12:52:35.227Z,3.90
2022-09-09T12:55:02.522Z,4.17
2022-09-09T12:57:34.049Z,4.37
2022-09-09T13:00:18.045Z,3.70
2022-09-09T13:02:49.218Z,3.80
2022-09-09T13:05:17.789Z,3.70
2022-09-09T13:07:45.051Z,3.70
2022-09-09T13:10:15.325Z,3.93
2022-09-09T13:12:48.876Z,3.67
2022-09-09T13:15:21.412Z,3.93
2022-09-09T13:17:53.679Z,3.93
2022-09-09T13:20:20.743Z,3.50
2022-09-09T13:22:49.584Z,3.17
2022-09-09T13:25:26.678Z,3.70
2022-09-09T13:27:54.500Z,3.50
2022-09-09T13:30:28.686Z,4.80
2022-09-09T13:33:05.439Z,7.27
2022-09-09T13:35:32.234Z,8.00
2022-09-09T13:37:59.435Z,9.43
2022-09-09T13:40:25.963Z,9.90
2022-09-09T13:42:57.116Z,9.13
2022-09-09T13:45:27.661Z,8.97
2022-09-09T13:47:56.464Z,9.67
2022-09-09T13:50:24.676Z,9.10
2022-09-09T13:52:59.215Z,9.37
2022-09-09T13:55:27.453Z,9.27
2022-09-09T13:57:55.223Z,8.83
2022-09-09T14:00:22.116Z,9.40
2022-09-09T14:02:49.644Z,8.53
2022-09-09T14:05:16.875Z,8.57
2022-09-09T14:07:44.171Z,7.27
2022-09-09T14:10:10.936Z,7.83
2022-09-09T14:12:39.212Z,6.93
2022-09-09T14:15:06.456Z,7.77
2022-09-09T14:17:32.973Z,7.33
2022-09-09T14:19:59.434Z,7.03
2022-09-09T14:22:26.544Z,6.77
2022-09-09T14:24:53.682Z,6.40
2022-09-09T14:27:20.736Z,7.27
2022-09-09T14:29:47.248Z,6.03
2022-09-09T14:32:13.796Z,6.17
2022-09-09T14:34:41.495Z,5.77
2022-09-09T14:37:08.017Z,5.90
2022-09-09T14:39:34.556Z,5.37
2022-09-09T14:42:01.728Z,5.80
2022-09-09T14:44:28.274Z,5.53
2022-09-09T14:46:55.187Z,5.27
2022-09-09T14:49:21.717Z,5.73
2022-09-09T14:51:48.246Z,5.00
2022-09-09T14:54:15.803Z,4.97
2022-09-09T14:56:42.301Z,5.40
2022-09-09T14:59:08.845Z,5.07
2022-09-09T15:01:35.607Z,4.63
2022-09-09T15:04:04.099Z,4.83
2022-09-09T15:06:32.684Z,5.17
2022-09-09T15:08:59.180Z,4.30
2022-09-09T15:11:28.741Z,4.83
2022-09-09T15:13:55.547Z,4.03
2022-09-09T15:16:24.395Z,4.47
2022-09-09T15:18:55.423Z,4.33
2022-09-09T15:21:23.418Z,3.17
2022-09-09T15:23:50.048Z,3.70
2022-09-09T15:26:16.699Z,3.83
2022-09-09T15:28:44.619Z,3.33
2022-09-09T15:31:12.906Z,3.07
2022-09-09T15:33:39.600Z,3.40
2022-09-09T15:36:19.260Z,3.07
2022-09-09T15:38:46.139Z,3.73
2022-09-09T15:41:13.527Z,3.00
2022-09-09T15:43:40.354Z,3.00
2022-09-09T15:46:25.405Z,3.30
2022-09-09T15:48:53.867Z,2.83
2022-09-09T15:51:41.193Z,3.13
2022-09-09T15:54:08.012Z,2.90
2022-09-09T15:56:35.790Z,3.23
2022-09-09T15:59:03.958Z,3.00
2022-09-09T16:01:31.330Z,3.03
2022-09-09T16:03:58.515Z,2.53
2022-09-09T16:06:25.705Z,2.77
2022-09-09T16:08:53.765Z,2.20
2022-09-09T16:11:22.528Z,2.80
2022-09-09T16:13:51.220Z,2.37
2022-09-09T16:16:20.341Z,2.20
2022-09-09T16:18:47.935Z,2.43
2022-09-09T16:21:18.195Z,2.57
2022-09-09T16:23:44.907Z,2.40
2022-09-09T16:26:12.283Z,2.33
2022-09-09T16:28:38.811Z,2.93
2022-09-09T16:31:07.417Z,2.33
2022-09-09T16:33:33.973Z,2.17
2022-09-09T16:36:11.233Z,2.27
2022-09-09T16:38:37.994Z,2.40
2022-09-09T16:41:06.658Z,2.20
2022-09-09T16:43:33.969Z,2.63
2022-09-09T16:46:03.549Z,2.70
2022-09-09T16:48:34.112Z,1.90
2022-09-09T16:51:09.079Z,2.13
2022-09-09T16:53:35.624Z,2.40
2022-09-09T16:56:09.295Z,1.83
2022-09-09T16:58:35.844Z,2.27
2022-09-09T17:01:04.092Z,2.17
2022-09-09T17:03:31.145Z,2.07
2022-09-09T17:05:58.731Z,2.20
2022-09-09T17:08:25.507Z,2.23
2022-09-09T17:10:52.031Z,2.07
2022-09-09T17:13:20.592Z,1.77
2022-09-09T17:15:47.155Z,1.83
2022-09-09T17:18:13.795Z,1.97
2022-09-09T17:20:46.927Z,1.97
2022-09-09T17:23:16.315Z,1.70
2022-09-09T17:25:42.898Z,1.90
2022-09-09T17:28:09.383Z,1.67
2022-09-09T17:30:36.133Z,2.03
2022-09-09T17:33:02.619Z,1.97
2022-09-09T17:35:29.168Z,1.50
2022-09-09T17:37:55.652Z,1.67
2022-09-09T17:40:22.245Z,2.13
2022-09-09T17:42:48.736Z,2.17
2022-09-09T17:45:15.828Z,1.87
2022-09-09T17:47:43.752Z,1.73
2022-09-09T17:50:12.295Z,1.80
2022-09-09T17:52:38.795Z,1.87
2022-09-09T17:55:06.187Z,1.50
2022-09-09T17:57:32.656Z,1.80
2022-09-09T17:59:59.140Z,1.87
2022-09-09T18:02:25.777Z,1.80
2022-09-09T18:04:52.271Z,1.80
2022-09-09T18:07:19.046Z,1.63
2022-09-09T18:09:46.728Z,1.70
2022-09-09T18:12:13.231Z,1.80
2022-09-09T18:14:39.870Z,1.70
2022-09-09T18:17:06.578Z,1.80
2022-09-09T18:19:33.249Z,1.70
2022-09-09T18:22:02.347Z,1.50
2022-09-09T18:24:29.560Z,2.03
2022-09-09T18:26:56.171Z,1.80
2022-09-09T18:29:25.133Z,1.60
2022-09-09T18:31:53.164Z,1.53
2022-09-09T18:34:19.963Z,1.60
2022-09-09T18:36:48.061Z,1.60
2022-09-09T18:39:16.134Z,1.57
2022-09-09T18:41:47.183Z,1.80
2022-09-09T18:44:16.502Z,1.53
2022-09-09T18:46:43.519Z,1.60
2022-09-09T18:49:11.578Z,1.70
2022-09-09T18:51:38.347Z,1.60
2022-09-09T18:54:11.044Z,1.57
2022-09-09T18:56:37.531Z,1.60
2022-09-09T18:59:06.361Z,1.40
2022-09-09T19:01:34.861Z,1.40
2022-09-09T19:04:01.673Z,1.63
2022-09-09T19:06:30.563Z,1.60
2022-09-09T19:09:02.886Z,1.53
2022-09-09T19:11:30.860Z,1.80
2022-09-09T19:13:59.592Z,1.67
2022-09-09T19:16:29.097Z,1.50
2022-09-09T19:19:01.023Z,1.17
2022-09-09T19:21:31.708Z,1.40
2022-09-09T19:24:00.596Z,1.50
2022-09-09T19:26:31.953Z,1.50
2022-09-09T19:28:59.274Z,1.40
2022-09-09T19:31:27.924Z,1.40
2022-09-09T19:33:55.674Z,1.30
2022-09-09T19:36:22.633Z,1.70
2022-09-09T19:38:49.103Z,1.60
2022-09-09T19:41:18.254Z,1.40
2022-09-09T19:43:45.022Z,1.53
2022-09-09T19:46:12.070Z,1.60
2022-09-09T19:48:39.334Z,1.60
2022-09-09T19:51:09.896Z,1.53
2022-09-09T19:53:37.667Z,1.30
2022-09-09T19:56:04.455Z,1.60
2022-09-09T19:58:34.745Z,1.47
2022-09-09T20:01:17.072Z,1.40
2022-09-09T20:03:45.098Z,1.50
2022-09-09T20:06:13.211Z,1.47
2022-09-09T20:08:40.092Z,1.60
2022-09-09T20:11:07.322Z,1.57
2022-09-09T20:13:36.042Z,1.50
2022-09-09T20:16:04.166Z,1.57
2022-09-09T20:18:32.415Z,1.60
2022-09-09T20:21:00.518Z,1.40
2022-09-09T20:23:28.049Z,1.40
2022-09-09T20:25:54.752Z,1.50
2022-09-09T20:28:21.377Z,1.30
2022-09-09T20:30:48.600Z,1.40
2022-09-09T20:33:15.395Z,1.40
2022-09-09T20:35:41.895Z,1.30
2022-09-09T20:38:08.375Z,1.43
2022-09-09T20:40:38.678Z,1.53
2022-09-09T20:43:05.175Z,1.40
2022-09-09T20:45:35.355Z,1.30
2022-09-09T20:48:01.915Z,1.50
2022-09-09T20:50:28.414Z,1.40
2022-09-09T20:52:54.976Z,1.50
2022-09-09T20:55:21.544Z,1.30
2022-09-09T20:57:48.034Z,1.67
2022-09-09T21:00:15.150Z,1.40
2022-09-09T21:02:41.700Z,1.37
2022-09-09T21:05:08.729Z,1.50
2022-09-09T21:07:35.188Z,1.70
2022-09-09T21:10:02.093Z,1.43
2022-09-09T21:12:28.643Z,1.63
2022-09-09T21:14:55.119Z,1.70
2022-09-09T21:17:21.836Z,1.40
2022-09-09T21:19:48.321Z,1.40
2022-09-09T21:22:14.787Z,1.37
2022-09-09T21:24:41.299Z,1.47
2022-09-09T21:27:07.841Z,1.50
2022-09-09T21:29:34.375Z,1.63
2022-09-09T21:32:03.606Z,1.33
2022-09-09T21:34:30.196Z,1.30
2022-09-09T21:36:57.117Z,1.53
2022-09-09T21:39:23.617Z,1.33
2022-09-09T21:41:50.155Z,1.50
2022-09-09T21:44:16.689Z,1.50
2022-09-09T21:46:43.926Z,1.33
2022-09-09T21:49:11.116Z,1.50
2022-09-09T21:51:37.623Z,1.30
2022-09-09T21:54:04.198Z,1.40
2022-09-09T21:56:30.738Z,1.27
2022-09-09T21:58:58.856Z,1.40
2022-09-09T22:01:26.169Z,1.30
2022-09-09T22:03:52.851Z,1.43
2022-09-09T22:06:19.433Z,1.40
2022-09-09T22:08:46.479Z,1.30
2022-09-09T22:11:20.559Z,1.60
2022-09-09T22:13:47.221Z,1.50
2022-09-09T22:16:16.730Z,1.00
2022-09-09T22:18:43.604Z,1.40
2022-09-09T22:21:11.924Z,1.60
2022-09-09T22:23:38.474Z,1.40
2022-09-09T22:26:05.219Z,1.57
2022-09-09T22:28:32.268Z,1.10
2022-09-09T22:30:59.011Z,1.50
2022-09-09T22:33:27.224Z,1.40
2022-09-09T22:35:53.753Z,1.20
2022-09-09T22:38:21.607Z,1.50
2022-09-09T22:40:48.658Z,1.30
2022-09-09T22:43:16.935Z,1.50
2022-09-09T22:45:43.856Z,1.20
2022-09-09T22:48:11.743Z,1.50
2022-09-09T22:50:42.050Z,1.60
2022-09-09T22:53:09.352Z,1.50
2022-09-09T22:55:35.827Z,1.40
2022-09-09T22:58:02.347Z,1.30
2022-09-09T23:00:29.317Z,1.30
2022-09-09T23:02:56.200Z,1.13
2022-09-09T23:05:24.409Z,1.30
2022-09-09T23:07:52.904Z,1.30
2022-09-09T23:10:19.484Z,1.40
2022-09-09T23:12:46.889Z,1.50
2022-09-09T23:15:14.068Z,1.60
2022-09-09T23:17:41.052Z,1.30
2022-09-09T23:20:10.437Z,1.43
2022-09-09T23:22:38.452Z,1.40
2022-09-09T23:25:05.898Z,1.40
2022-09-09T23:27:33.491Z,1.33
2022-09-09T23:29:59.995Z,1.30
2022-09-09T23:32:26.694Z,1.27
2022-09-09T23:34:53.207Z,1.63
2022-09-09T23:37:20.176Z,1.30
2022-09-09T23:39:46.767Z,1.40
2022-09-09T23:42:13.931Z,1.50
2022-09-09T23:44:40.432Z,1.77
2022-09-09T23:47:07.398Z,1.27
2022-09-09T23:49:34.455Z,1.50
2022-09-09T23:52:06.328Z,1.50
2022-09-09T23:54:34.111Z,1.30
2022-09-09T23:57:00.754Z,1.50
2022-09-09T23:59:27.309Z,1.33
